Terminal Aerodrome Forecast
Issued by NWS

Home | Current Version | Previous Version | Graphics & Text | Print | Product List | Glossary On
Versions: 1 2 3 4 5 6 7 8 9 10 11 12
000
FTUS45 KGGW 182333
TAFSDY
TAF
KSDY 182333Z 1900/1924 15006KT P6SM BKN120
     FM190600 14005KT P6SM VCSH BKN100 WS020/16035KT
     FM190700 15005KT P6SM VCSH BKN100
     FM191200 27005KT P6SM VCSH OVC060=

USA.gov is the U.S. government's official web portal to all federal, state and local government web resources and services.